createdAt,value
2023-10-28T00:01:28.266Z,4.40
2023-10-28T00:03:58.719Z,4.00
2023-10-28T00:06:28.486Z,3.60
2023-10-28T00:09:01.175Z,3.80
2023-10-28T00:11:33.736Z,5.30
2023-10-28T00:14:03.639Z,4.00
2023-10-28T00:16:33.453Z,4.60
2023-10-28T00:19:05.083Z,3.80
2023-10-28T00:21:35.845Z,2.50
2023-10-28T00:24:06.404Z,4.90
2023-10-28T00:26:38.567Z,5.40
2023-10-28T00:29:08.958Z,3.10
2023-10-28T00:31:38.789Z,3.20
2023-10-28T00:34:10.179Z,4.60
2023-10-28T00:36:42.105Z,4.10
2023-10-28T00:39:12.428Z,3.00
2023-10-28T00:41:44.956Z,3.10
2023-10-28T00:44:15.568Z,3.00
2023-10-28T00:46:45.821Z,4.30
2023-10-28T00:49:16.612Z,3.60
2023-10-28T00:51:47.082Z,3.30
2023-10-28T00:54:16.888Z,2.70
2023-10-28T00:56:48.943Z,4.80
2023-10-28T00:59:19.860Z,2.80
2023-10-28T01:01:52.912Z,3.60
2023-10-28T01:04:25.299Z,3.90
2023-10-28T01:06:58.137Z,2.70
2023-10-28T01:09:27.972Z,3.90
2023-10-28T01:12:00.282Z,4.50
2023-10-28T01:14:30.490Z,4.00
2023-10-28T01:17:06.007Z,3.90
2023-10-28T01:19:36.132Z,4.10
2023-10-28T01:22:06.429Z,3.60
2023-10-28T01:24:40.652Z,2.60
2023-10-28T01:27:11.138Z,4.20
2023-10-28T01:29:43.372Z,3.90
2023-10-28T01:32:13.385Z,3.30
2023-10-28T01:34:50.711Z,2.80
2023-10-28T01:37:21.703Z,3.50
2023-10-28T01:39:53.233Z,3.50
2023-10-28T01:42:23.716Z,3.40
2023-10-28T01:44:53.454Z,3.10
2023-10-28T01:47:24.310Z,3.60
2023-10-28T01:49:54.510Z,3.00
2023-10-28T01:52:24.661Z,2.80
2023-10-28T01:54:57.191Z,4.40
2023-10-28T01:57:26.983Z,4.40
2023-10-28T01:59:56.755Z,3.70
2023-10-28T02:02:27.072Z,4.30
2023-10-28T02:04:56.979Z,4.60
2023-10-28T02:07:30.242Z,4.90
2023-10-28T02:10:01.104Z,3.10
2023-10-28T02:12:35.631Z,3.40
2023-10-28T02:15:08.059Z,4.00
2023-10-28T02:17:38.312Z,5.80
2023-10-28T02:20:11.588Z,4.10
2023-10-28T02:22:41.662Z,4.80
2023-10-28T02:25:11.758Z,3.60
2023-10-28T02:27:41.700Z,7.20
2023-10-28T02:30:14.733Z,3.60
2023-10-28T02:32:45.316Z,5.30
2023-10-28T02:35:15.294Z,5.50
2023-10-28T02:37:45.157Z,4.00
2023-10-28T02:40:17.704Z,4.40
2023-10-28T02:42:47.448Z,5.90
2023-10-28T02:45:17.794Z,5.90
2023-10-28T02:47:47.620Z,4.20
2023-10-28T02:50:20.701Z,5.20
2023-10-28T02:52:51.732Z,5.10
2023-10-28T02:55:22.807Z,5.30
2023-10-28T02:57:54.735Z,4.70
2023-10-28T03:00:24.506Z,8.60
2023-10-28T03:02:56.699Z,3.80
2023-10-28T03:05:27.091Z,5.10
2023-10-28T03:07:59.987Z,6.10
2023-10-28T03:10:32.312Z,5.30
2023-10-28T03:13:05.073Z,6.10
2023-10-28T03:15:34.918Z,6.30
2023-10-28T03:18:07.225Z,6.90
2023-10-28T03:20:36.984Z,6.10
2023-10-28T03:23:12.226Z,2.70
2023-10-28T03:25:42.709Z,3.50
2023-10-28T03:28:12.627Z,6.70
2023-10-28T03:30:44.692Z,5.30
2023-10-28T03:33:14.542Z,6.60
2023-10-28T03:35:44.294Z,3.50
2023-10-28T03:38:16.541Z,6.80
2023-10-28T03:40:49.306Z,4.40
2023-10-28T03:43:24.008Z,3.40
2023-10-28T03:45:53.757Z,5.30
2023-10-28T03:48:23.849Z,5.40
2023-10-28T03:51:02.206Z,5.60
2023-10-28T03:53:33.229Z,3.40
2023-10-28T03:56:04.011Z,4.90
2023-10-28T03:58:36.344Z,4.50
2023-10-28T04:01:06.525Z,3.20
2023-10-28T04:03:39.191Z,4.40
2023-10-28T04:06:09.005Z,5.50
2023-10-28T04:08:39.352Z,4.00
2023-10-28T04:11:10.438Z,5.20
2023-10-28T04:13:40.944Z,4.90
2023-10-28T04:16:13.006Z,6.00
2023-10-28T04:18:43.108Z,4.20
2023-10-28T04:21:15.273Z,4.90
2023-10-28T04:23:45.087Z,5.10
2023-10-28T04:26:14.859Z,4.10
2023-10-28T04:28:44.933Z,5.10
2023-10-28T04:31:16.967Z,5.40
2023-10-28T04:33:48.884Z,4.20
2023-10-28T04:36:20.914Z,4.30
2023-10-28T04:38:50.682Z,6.20
2023-10-28T04:41:22.797Z,7.30
2023-10-28T04:43:52.740Z,8.00
2023-10-28T04:46:24.934Z,5.60
2023-10-28T04:48:54.789Z,4.80
2023-10-28T04:51:25.836Z,5.20
2023-10-28T04:53:57.352Z,3.30
2023-10-28T04:56:27.232Z,3.50
2023-10-28T04:58:57.162Z,5.10
2023-10-28T05:01:27.127Z,4.20
2023-10-28T05:03:56.886Z,6.60
2023-10-28T05:06:26.750Z,8.40
2023-10-28T05:08:56.484Z,5.10
2023-10-28T05:11:28.744Z,3.60
2023-10-28T05:13:58.936Z,3.60
2023-10-28T05:16:32.234Z,5.30
2023-10-28T05:19:04.381Z,6.90
2023-10-28T05:21:35.563Z,5.90
2023-10-28T05:24:06.917Z,4.30
2023-10-28T05:26:36.667Z,4.90
2023-10-28T05:29:08.638Z,5.60
2023-10-28T05:31:41.005Z,4.40
2023-10-28T05:34:10.801Z,7.70
2023-10-28T05:36:45.386Z,6.20
2023-10-28T05:39:15.224Z,4.70
2023-10-28T05:41:45.556Z,5.40
2023-10-28T05:44:16.100Z,4.80
2023-10-28T05:46:46.649Z,8.50
2023-10-28T05:49:19.511Z,3.70
2023-10-28T05:51:49.510Z,8.10
2023-10-28T05:54:19.263Z,6.20
2023-10-28T05:56:51.779Z,7.40
2023-10-28T05:59:21.684Z,10.50
2023-10-28T06:01:54.313Z,7.40
2023-10-28T06:04:24.408Z,5.20
2023-10-28T06:06:54.129Z,7.10
2023-10-28T06:09:24.672Z,8.50
2023-10-28T06:11:56.037Z,7.20
2023-10-28T06:14:28.474Z,7.70
2023-10-28T06:16:58.366Z,7.70
2023-10-28T06:19:28.431Z,8.60
2023-10-28T06:22:00.546Z,4.90
2023-10-28T06:24:30.470Z,6.00
2023-10-28T06:27:00.404Z,3.80
2023-10-28T06:29:31.006Z,5.80
2023-10-28T06:32:01.549Z,8.00
2023-10-28T06:34:32.649Z,6.10
2023-10-28T06:37:04.640Z,8.90
2023-10-28T06:39:37.513Z,5.30
2023-10-28T06:42:07.844Z,5.30
2023-10-28T06:44:40.534Z,6.40
2023-10-28T06:47:10.769Z,5.80
2023-10-28T06:49:43.092Z,7.80
2023-10-28T06:52:15.545Z,5.60
2023-10-28T06:54:47.965Z,5.70
2023-10-28T06:57:20.677Z,6.00
2023-10-28T06:59:50.986Z,7.20
2023-10-28T07:02:20.896Z,4.70
2023-10-28T07:04:51.971Z,4.90
2023-10-28T07:07:24.397Z,7.70
2023-10-28T07:12:24.977Z,4.70
2023-10-28T07:14:55.581Z,4.30
2023-10-28T07:17:25.382Z,4.90
2023-10-28T07:19:55.715Z,5.50
2023-10-28T07:22:26.931Z,5.80
2023-10-28T07:24:57.035Z,5.80
2023-10-28T07:27:27.640Z,8.90
2023-10-28T07:29:57.560Z,7.80
2023-10-28T07:32:27.672Z,5.60
2023-10-28T07:34:57.686Z,5.60
2023-10-28T07:37:30.750Z,5.20
2023-10-28T07:40:02.147Z,7.20
2023-10-28T07:42:32.005Z,4.80
2023-10-28T07:45:02.403Z,7.50
2023-10-28T07:47:32.699Z,6.30
2023-10-28T07:50:03.166Z,5.40
2023-10-28T07:52:33.128Z,4.90
2023-10-28T07:55:06.116Z,4.50
2023-10-28T07:57:35.848Z,5.30
2023-10-28T08:00:12.506Z,4.90
2023-10-28T08:02:46.422Z,4.80
2023-10-28T08:05:19.079Z,6.20
2023-10-28T08:07:51.334Z,3.90
2023-10-28T08:10:24.686Z,7.30
2023-10-28T08:12:55.846Z,5.20
2023-10-28T08:15:26.622Z,5.80
2023-10-28T08:17:57.311Z,4.70
2023-10-28T08:20:29.921Z,5.20
2023-10-28T08:23:02.178Z,7.90
2023-10-28T08:25:32.896Z,5.20
2023-10-28T08:28:04.112Z,3.00
2023-10-28T08:30:37.084Z,3.10
2023-10-28T08:33:07.120Z,3.90
2023-10-28T08:35:39.152Z,4.30
2023-10-28T08:38:09.082Z,6.30
2023-10-28T08:40:44.905Z,5.60
2023-10-28T08:43:15.822Z,5.00
2023-10-28T08:45:48.825Z,5.40
2023-10-28T08:48:22.001Z,5.50
2023-10-28T08:50:57.124Z,5.90
2023-10-28T08:53:28.199Z,3.60
2023-10-28T08:56:02.244Z,5.60
2023-10-28T08:58:32.050Z,9.60
2023-10-28T09:01:03.306Z,5.30
2023-10-28T09:03:35.392Z,8.00
2023-10-28T09:06:08.910Z,4.60
2023-10-28T09:08:39.649Z,3.30
2023-10-28T09:11:13.844Z,4.80
2023-10-28T09:13:46.498Z,4.30
2023-10-28T09:16:16.666Z,4.80
2023-10-28T09:18:51.988Z,5.10
2023-10-28T09:21:22.055Z,5.20
2023-10-28T09:23:54.349Z,5.40
2023-10-28T09:26:26.708Z,5.90
2023-10-28T09:28:56.488Z,6.30
2023-10-28T09:31:29.558Z,6.30
2023-10-28T09:34:00.915Z,6.10
2023-10-28T09:36:31.682Z,9.00
2023-10-28T09:39:05.632Z,6.00
2023-10-28T09:41:35.782Z,5.30
2023-10-28T09:44:10.149Z,8.20
2023-10-28T09:46:44.609Z,6.70
2023-10-28T09:49:15.231Z,5.10
2023-10-28T09:51:53.950Z,8.70
2023-10-28T09:54:28.951Z,7.70
2023-10-28T09:57:01.566Z,8.20
2023-10-28T09:59:37.569Z,4.30
2023-10-28T10:02:26.188Z,7.10
2023-10-28T10:05:01.158Z,6.20
2023-10-28T10:07:33.815Z,8.20
2023-10-28T10:10:17.459Z,5.60
2023-10-28T10:12:51.757Z,9.20
2023-10-28T10:15:23.674Z,7.20
2023-10-28T10:18:05.928Z,8.40
2023-10-28T10:20:40.244Z,6.60
2023-10-28T10:23:11.150Z,4.40
2023-10-28T10:25:46.390Z,7.70
2023-10-28T10:28:19.679Z,7.30
2023-10-28T10:30:49.553Z,7.90
2023-10-28T10:33:31.226Z,8.50
2023-10-28T10:36:01.597Z,7.40
2023-10-28T10:38:31.822Z,9.90
2023-10-28T10:41:01.974Z,11.70
2023-10-28T10:43:34.835Z,6.80
2023-10-28T10:46:08.506Z,10.70
2023-10-28T10:48:39.310Z,7.80
2023-10-28T10:51:09.722Z,8.80
2023-10-28T10:53:47.560Z,8.60
2023-10-28T10:56:26.384Z,10.00
2023-10-28T10:58:56.236Z,10.40
2023-10-28T11:01:26.669Z,9.50
2023-10-28T11:04:03.436Z,7.80
2023-10-28T11:06:33.244Z,9.70
2023-10-28T11:09:07.136Z,9.00
2023-10-28T11:11:38.332Z,8.20
2023-10-28T11:14:08.593Z,7.90
2023-10-28T11:16:41.047Z,5.60
2023-10-28T11:19:11.378Z,7.80
2023-10-28T11:21:42.067Z,6.20
2023-10-28T11:24:15.925Z,6.10
2023-10-28T11:26:48.994Z,7.70
2023-10-28T11:29:21.333Z,9.60
2023-10-28T11:31:54.236Z,7.10
2023-10-28T11:34:25.195Z,14.50
2023-10-28T11:36:58.128Z,12.00
2023-10-28T11:39:31.248Z,5.70
2023-10-28T11:42:09.913Z,8.40
2023-10-28T11:44:41.699Z,6.60
2023-10-28T11:47:13.965Z,7.70
2023-10-28T11:49:46.489Z,6.60
2023-10-28T11:52:18.610Z,10.00
2023-10-28T11:54:48.713Z,8.30
2023-10-28T11:57:18.463Z,6.80
2023-10-28T11:59:51.156Z,9.30
2023-10-28T12:02:21.093Z,7.00
2023-10-28T12:04:53.176Z,8.90
2023-10-28T12:07:23.048Z,8.30
2023-10-28T12:09:52.808Z,5.10
2023-10-28T12:12:22.520Z,10.90
2023-10-28T12:14:54.596Z,7.00
2023-10-28T12:17:24.474Z,7.50
2023-10-28T12:20:00.287Z,8.20
2023-10-28T12:22:30.085Z,7.10
2023-10-28T12:24:59.850Z,5.90
2023-10-28T12:27:33.613Z,6.30
2023-10-28T12:30:07.268Z,5.20
2023-10-28T12:32:39.654Z,5.50
2023-10-28T12:35:10.165Z,6.90
2023-10-28T12:37:42.863Z,6.30
2023-10-28T12:40:13.867Z,7.80
2023-10-28T12:42:43.791Z,5.70
2023-10-28T12:45:13.691Z,5.10
2023-10-28T12:47:43.628Z,5.70
2023-10-28T12:50:18.254Z,7.00
2023-10-28T12:55:16.571Z,5.20
2023-10-28T12:57:46.355Z,4.90
2023-10-28T13:00:21.598Z,7.80
2023-10-28T13:02:53.521Z,5.90
2023-10-28T13:05:25.870Z,4.00
2023-10-28T13:07:55.657Z,5.70
2023-10-28T13:10:28.687Z,7.30
2023-10-28T13:13:00.764Z,7.20
2023-10-28T13:15:30.437Z,7.80
2023-10-28T13:18:00.315Z,5.40
2023-10-28T13:20:30.317Z,3.60
2023-10-28T13:23:01.734Z,8.10
2023-10-28T13:25:32.333Z,11.00
2023-10-28T13:28:02.094Z,6.60
2023-10-28T13:30:35.173Z,6.50
2023-10-28T13:33:05.697Z,11.60
2023-10-28T13:35:35.666Z,8.20
2023-10-28T13:38:05.524Z,7.60
2023-10-28T13:40:35.294Z,8.60
2023-10-28T13:43:05.062Z,6.00
2023-10-28T13:45:37.152Z,5.70
2023-10-28T13:48:08.484Z,3.10
2023-10-28T13:50:40.804Z,7.90
2023-10-28T13:53:11.547Z,6.00
2023-10-28T13:55:41.243Z,4.40
2023-10-28T13:58:10.969Z,6.70
2023-10-28T14:00:40.731Z,8.90
2023-10-28T14:03:13.845Z,8.10
2023-10-28T14:05:43.680Z,4.20
2023-10-28T14:08:13.433Z,3.90
2023-10-28T14:10:48.105Z,4.70
2023-10-28T14:15:46.044Z,6.90
2023-10-28T14:18:19.726Z,7.20
2023-10-28T14:20:52.778Z,7.20
2023-10-28T14:23:25.712Z,8.80
2023-10-28T14:25:56.478Z,7.50
2023-10-28T14:28:26.237Z,6.60
2023-10-28T14:30:57.489Z,6.10
2023-10-28T14:33:29.973Z,4.40
2023-10-28T14:36:08.314Z,5.50
2023-10-28T14:38:41.173Z,6.50
2023-10-28T14:41:14.254Z,7.00
2023-10-28T14:43:44.693Z,5.70
2023-10-28T14:46:14.430Z,6.60
2023-10-28T14:48:44.350Z,7.20
2023-10-28T14:51:16.434Z,5.40
2023-10-28T14:53:46.425Z,5.80
2023-10-28T14:56:16.344Z,5.60
2023-10-28T14:58:46.108Z,6.80
2023-10-28T15:01:18.441Z,5.00
2023-10-28T15:03:48.448Z,6.40
2023-10-28T15:06:20.306Z,4.00
2023-10-28T15:08:51.262Z,4.90
2023-10-28T15:11:22.264Z,3.80
2023-10-28T15:13:52.160Z,3.60
2023-10-28T15:16:24.632Z,6.80
2023-10-28T15:18:55.313Z,4.60
2023-10-28T15:21:28.569Z,5.30
2023-10-28T15:24:00.669Z,4.50
2023-10-28T15:26:30.616Z,3.70
2023-10-28T15:29:00.850Z,5.60
2023-10-28T15:31:30.710Z,4.90
2023-10-28T15:34:02.898Z,3.80
2023-10-28T15:36:32.800Z,5.80
2023-10-28T15:39:02.591Z,4.10
2023-10-28T15:41:35.561Z,5.30
2023-10-28T15:44:08.383Z,5.10
2023-10-28T15:46:40.235Z,3.90
2023-10-28T15:49:11.311Z,5.50
2023-10-28T15:51:41.043Z,4.10
2023-10-28T15:54:10.773Z,2.90
2023-10-28T15:56:41.728Z,4.40
2023-10-28T15:59:11.562Z,4.30
2023-10-28T16:01:42.004Z,4.30
2023-10-28T16:04:14.492Z,3.60
2023-10-28T16:06:47.607Z,4.10
2023-10-28T16:09:17.769Z,4.30
2023-10-28T16:11:47.630Z,5.50
2023-10-28T16:14:19.645Z,3.50
2023-10-28T16:16:49.582Z,3.70
2023-10-28T16:19:19.693Z,2.70
2023-10-28T16:21:50.520Z,4.20
2023-10-28T16:24:20.311Z,2.80
2023-10-28T16:26:52.129Z,5.40
2023-10-28T16:29:21.936Z,3.80
2023-10-28T16:31:55.554Z,3.60
2023-10-28T16:34:27.498Z,5.10
2023-10-28T16:36:57.315Z,2.10
2023-10-28T16:39:27.234Z,3.10
2023-10-28T16:41:56.961Z,4.60
2023-10-28T16:44:27.578Z,4.80
2023-10-28T16:46:57.361Z,2.50
2023-10-28T16:49:27.186Z,4.80
2023-10-28T16:52:00.016Z,3.40
2023-10-28T16:54:32.091Z,3.30
2023-10-28T16:57:01.857Z,3.00
2023-10-28T16:59:36.267Z,3.20
2023-10-28T17:02:09.996Z,5.90
2023-10-28T17:04:39.958Z,2.50
2023-10-28T17:07:12.056Z,3.40
2023-10-28T17:09:42.490Z,3.20
2023-10-28T17:12:12.498Z,4.00
2023-10-28T17:14:44.589Z,4.00
2023-10-28T17:17:16.567Z,3.00
2023-10-28T17:19:48.557Z,2.80
2023-10-28T17:22:18.279Z,4.30
2023-10-28T17:24:52.514Z,2.30
2023-10-28T17:27:25.743Z,4.20
2023-10-28T17:29:55.779Z,3.30
2023-10-28T17:32:27.897Z,3.50
2023-10-28T17:37:28.444Z,4.60
2023-10-28T17:39:58.191Z,3.00
2023-10-28T17:42:30.396Z,4.30
2023-10-28T17:45:02.924Z,2.30
2023-10-28T17:47:33.050Z,3.00
2023-10-28T17:50:08.281Z,3.20
2023-10-28T17:52:38.569Z,2.40
2023-10-28T17:55:12.039Z,2.70
2023-10-28T17:57:42.031Z,2.50
2023-10-28T18:00:13.166Z,3.60
2023-10-28T18:02:45.479Z,2.80
2023-10-28T18:05:16.093Z,3.60
2023-10-28T18:07:46.800Z,3.70
2023-10-28T18:10:18.740Z,5.00
2023-10-28T18:12:52.769Z,4.00
2023-10-28T18:15:22.593Z,4.00
2023-10-28T18:17:52.695Z,2.90
2023-10-28T18:20:22.510Z,3.70
2023-10-28T18:22:53.734Z,3.10
2023-10-28T18:25:25.671Z,3.40
2023-10-28T18:27:55.936Z,3.30
2023-10-28T18:30:28.682Z,4.20
2023-10-28T18:33:01.085Z,3.80
2023-10-28T18:35:34.053Z,4.00
2023-10-28T18:38:04.108Z,3.80
2023-10-28T18:40:34.620Z,2.70
2023-10-28T18:43:04.483Z,3.40
2023-10-28T18:45:36.161Z,3.80
2023-10-28T18:48:07.556Z,4.60
2023-10-28T18:50:40.569Z,3.60
2023-10-28T18:53:10.915Z,3.10
2023-10-28T18:55:40.729Z,3.40
2023-10-28T18:58:13.311Z,3.30
2023-10-28T19:00:43.012Z,3.60
2023-10-28T19:03:14.745Z,2.60
2023-10-28T19:05:47.186Z,3.30
2023-10-28T19:08:16.988Z,4.20
2023-10-28T19:10:54.043Z,2.60
2023-10-28T19:13:23.989Z,1.90
2023-10-28T19:15:53.800Z,3.30
2023-10-28T19:18:23.905Z,3.70
2023-10-28T19:20:53.704Z,2.50
2023-10-28T19:23:26.057Z,4.10
2023-10-28T19:25:55.901Z,2.10
2023-10-28T19:28:25.853Z,3.30
2023-10-28T19:30:55.943Z,2.20
2023-10-28T19:33:26.508Z,2.00
2023-10-28T19:36:00.548Z,3.10
2023-10-28T19:38:33.448Z,2.80
2023-10-28T19:41:03.221Z,2.30
2023-10-28T19:43:35.149Z,3.20
2023-10-28T19:46:11.375Z,2.60
2023-10-28T19:48:43.169Z,2.70
2023-10-28T19:51:15.507Z,3.00
2023-10-28T19:53:46.569Z,2.80
2023-10-28T19:56:16.555Z,2.50
2023-10-28T19:58:48.610Z,3.40
2023-10-28T20:01:20.612Z,2.90
2023-10-28T20:03:55.886Z,1.90
2023-10-28T20:06:28.819Z,2.40
2023-10-28T20:08:58.829Z,2.20
2023-10-28T20:11:28.676Z,2.20
2023-10-28T20:13:58.582Z,2.30
2023-10-28T20:16:28.324Z,3.20
2023-10-28T20:19:00.599Z,2.80
2023-10-28T20:21:30.423Z,2.90
2023-10-28T20:24:00.239Z,3.50
2023-10-28T20:26:30.379Z,3.40
2023-10-28T20:29:00.192Z,2.40
2023-10-28T20:31:30.016Z,2.50
2023-10-28T20:33:59.712Z,2.10
2023-10-28T20:36:29.977Z,2.60
2023-10-28T20:38:59.726Z,2.90
2023-10-28T20:41:32.662Z,2.00
2023-10-28T20:44:02.491Z,3.10
2023-10-28T20:46:32.330Z,1.80
2023-10-28T20:49:06.967Z,2.60
2023-10-28T20:51:36.780Z,2.90
2023-10-28T20:54:09.320Z,2.80
2023-10-28T20:59:09.818Z,2.70
2023-10-28T21:01:42.603Z,2.50
2023-10-28T21:04:15.136Z,1.80
2023-10-28T21:06:45.429Z,2.20
2023-10-28T21:09:17.306Z,2.50
2023-10-28T21:11:47.121Z,1.60
2023-10-28T21:14:16.966Z,2.50
2023-10-28T21:16:46.700Z,2.30
2023-10-28T21:19:20.278Z,1.70
2023-10-28T21:21:54.148Z,3.00
2023-10-28T21:24:26.911Z,1.90
2023-10-28T21:26:56.834Z,2.70
2023-10-28T21:29:27.117Z,1.70
2023-10-28T21:31:57.228Z,3.40
2023-10-28T21:34:30.349Z,2.30
2023-10-28T21:37:00.160Z,1.80
2023-10-28T21:39:33.056Z,1.60
2023-10-28T21:42:03.010Z,1.50
2023-10-28T21:44:32.769Z,2.70
2023-10-28T21:47:05.453Z,1.70
2023-10-28T21:49:35.810Z,2.80
2023-10-28T21:52:06.251Z,2.70
2023-10-28T21:54:39.231Z,2.60
2023-10-28T21:57:13.240Z,2.10
2023-10-28T21:59:43.723Z,3.00
2023-10-28T22:02:18.457Z,3.30
2023-10-28T22:04:49.616Z,2.70
2023-10-28T22:07:19.638Z,2.10
2023-10-28T22:09:52.444Z,2.60
2023-10-28T22:12:22.396Z,3.80
2023-10-28T22:14:52.164Z,3.50
2023-10-28T22:17:26.597Z,3.60
2023-10-28T22:19:59.190Z,2.70
2023-10-28T22:22:33.563Z,2.30
2023-10-28T22:25:06.611Z,3.70
2023-10-28T22:27:37.554Z,3.20
2023-10-28T22:30:09.757Z,2.00
2023-10-28T22:32:39.983Z,2.50
2023-10-28T22:35:12.498Z,1.70
2023-10-28T22:37:42.329Z,6.90
2023-10-28T22:40:13.731Z,1.90
2023-10-28T22:42:44.400Z,5.10
2023-10-28T22:45:14.801Z,2.10
2023-10-28T22:47:44.772Z,3.90
2023-10-28T22:50:14.500Z,3.30
2023-10-28T22:52:44.503Z,4.20
2023-10-28T22:55:14.925Z,1.80
2023-10-28T22:57:47.022Z,4.00
2023-10-28T23:00:17.797Z,3.20
2023-10-28T23:02:50.808Z,1.90
2023-10-28T23:05:20.603Z,5.00
2023-10-28T23:07:51.682Z,4.30
2023-10-28T23:10:21.449Z,2.50
2023-10-28T23:12:51.294Z,1.90
2023-10-28T23:15:22.015Z,3.60
2023-10-28T23:17:52.436Z,1.80
2023-10-28T23:20:25.740Z,3.30
2023-10-28T23:22:56.920Z,2.30
2023-10-28T23:25:26.785Z,2.80
2023-10-28T23:27:58.223Z,2.30
2023-10-28T23:30:30.268Z,2.70
2023-10-28T23:33:05.516Z,3.70
2023-10-28T23:35:40.003Z,2.40
2023-10-28T23:38:10.345Z,1.80
2023-10-28T23:40:40.219Z,7.60
2023-10-28T23:43:10.109Z,1.70
2023-10-28T23:45:40.006Z,6.30
2023-10-28T23:48:09.842Z,2.70
2023-10-28T23:50:39.746Z,1.60
2023-10-28T23:53:12.349Z,3.90
2023-10-28T23:55:42.796Z,2.60
2023-10-28T23:58:12.689Z,3.80
